sensor_id;sensor_type;location;lat;lon;timestamp;pressure;altitude;pressure_sealevel;temperature;humidity
15487;BME280;7845;53.698;10.078;2023-03-12T00:00:40;100478.41;;;3.66;100.00
15487;BME280;7845;53.698;10.078;2023-03-12T00:03:05;100487.03;;;3.68;100.00
15487;BME280;7845;53.698;10.078;2023-03-12T00:05:31;100485.22;;;3.61;100.00
15487;BME280;7845;53.698;10.078;2023-03-12T00:07:57;100482.50;;;3.54;100.00
15487;BME280;7845;53.698;10.078;2023-03-12T00:10:27;100485.13;;;3.55;100.00
15487;BME280;7845;53.698;10.078;2023-03-12T00:12:54;100484.28;;;3.58;100.00
15487;BME280;7845;53.698;10.078;2023-03-12T00:15:20;100485.22;;;3.63;100.00
15487;BME280;7845;53.698;10.078;2023-03-12T00:17:46;100493.00;;;3.64;100.00
15487;BME280;7845;53.698;10.078;2023-03-12T00:20:11;100492.91;;;3.58;100.00
15487;BME280;7845;53.698;10.078;2023-03-12T00:22:39;100491.03;;;3.50;100.00
15487;BME280;7845;53.698;10.078;2023-03-12T00:25:06;100489.41;;;3.55;100.00
15487;BME280;7845;53.698;10.078;2023-03-12T00:27:35;100503.34;;;3.66;100.00
15487;BME280;7845;53.698;10.078;2023-03-12T00:30:01;100499.19;;;3.75;100.00
15487;BME280;7845;53.698;10.078;2023-03-12T00:32:26;100495.53;;;3.63;100.00
15487;BME280;7845;53.698;10.078;2023-03-12T00:34:55;100502.56;;;3.71;100.00
15487;BME280;7845;53.698;10.078;2023-03-12T00:37:21;100500.13;;;3.80;100.00
15487;BME280;7845;53.698;10.078;2023-03-12T00:39:46;100502.78;;;3.85;100.00
15487;BME280;7845;53.698;10.078;2023-03-12T00:42:12;100501.16;;;3.93;100.00
15487;BME280;7845;53.698;10.078;2023-03-12T00:44:38;100509.75;;;3.92;100.00
15487;BME280;7845;53.698;10.078;2023-03-12T00:47:05;100508.81;;;3.88;100.00
15487;BME280;7845;53.698;10.078;2023-03-12T00:49:31;100511.34;;;3.84;100.00
15487;BME280;7845;53.698;10.078;2023-03-12T00:51:57;100517.44;;;3.87;100.00
15487;BME280;7845;53.698;10.078;2023-03-12T00:54:23;100527.38;;;4.22;100.00
15487;BME280;7845;53.698;10.078;2023-03-12T00:56:48;100519.81;;;4.32;100.00
15487;BME280;7845;53.698;10.078;2023-03-12T00:59:14;100520.56;;;4.24;100.00
15487;BME280;7845;53.698;10.078;2023-03-12T01:01:40;100517.19;;;4.29;100.00
15487;BME280;7845;53.698;10.078;2023-03-12T01:04:08;100521.47;;;4.30;100.00
15487;BME280;7845;53.698;10.078;2023-03-12T01:06:35;100515.50;;;4.33;100.00
15487;BME280;7845;53.698;10.078;2023-03-12T01:09:04;100520.56;;;4.24;100.00
15487;BME280;7845;53.698;10.078;2023-03-12T01:11:31;100515.22;;;4.13;100.00
15487;BME280;7845;53.698;10.078;2023-03-12T01:14:01;100524.09;;;4.32;100.00
15487;BME280;7845;53.698;10.078;2023-03-12T01:16:27;100532.69;;;4.31;100.00
15487;BME280;7845;53.698;10.078;2023-03-12T01:18:55;100524.13;;;4.35;100.00
15487;BME280;7845;53.698;10.078;2023-03-12T01:21:20;100524.28;;;4.47;100.00
15487;BME280;7845;53.698;10.078;2023-03-12T01:23:49;100531.06;;;4.37;100.00
15487;BME280;7845;53.698;10.078;2023-03-12T01:26:14;100526.00;;;4.46;100.00
15487;BME280;7845;53.698;10.078;2023-03-12T01:28:41;100525.13;;;4.46;100.00
15487;BME280;7845;53.698;10.078;2023-03-12T01:31:10;100516.63;;;4.53;100.00
15487;BME280;7845;53.698;10.078;2023-03-12T01:33:35;100525.25;;;4.54;100.00
15487;BME280;7845;53.698;10.078;2023-03-12T01:36:01;100522.59;;;4.47;100.00
15487;BME280;7845;53.698;10.078;2023-03-12T01:38:26;100523.38;;;4.43;100.00
15487;BME280;7845;53.698;10.078;2023-03-12T01:40:53;100523.38;;;4.43;100.00
15487;BME280;7845;53.698;10.078;2023-03-12T01:43:47;100524.28;;;4.48;100.00
15487;BME280;7845;53.698;10.078;2023-03-12T01:54:11;100521.09;;;4.68;100.00
15487;BME280;7845;53.698;10.078;2023-03-12T01:56:39;100515.00;;;4.61;100.00
15487;BME280;7845;53.698;10.078;2023-03-12T01:59:14;100517.56;;;4.61;100.00
15487;BME280;7845;53.698;10.078;2023-03-12T02:01:40;100512.31;;;4.54;100.00
15487;BME280;7845;53.698;10.078;2023-03-12T02:04:06;100512.09;;;4.37;100.00
15487;BME280;7845;53.698;10.078;2023-03-12T02:09:26;100508.78;;;4.48;100.00
15487;BME280;7845;53.698;10.078;2023-03-12T02:11:51;100500.94;;;4.38;100.00
15487;BME280;7845;53.698;10.078;2023-03-12T02:14:16;100495.00;;;4.46;100.00
15487;BME280;7845;53.698;10.078;2023-03-12T02:16:43;100492.41;;;4.48;100.00
15487;BME280;7845;53.698;10.078;2023-03-12T02:19:18;100495.63;;;4.30;100.00
15487;BME280;7845;53.698;10.078;2023-03-12T02:21:46;100503.59;;;4.44;100.00
15487;BME280;7845;53.698;10.078;2023-03-12T02:24:39;100495.72;;;4.35;100.00
15487;BME280;7845;53.698;10.078;2023-03-12T02:27:08;100488.00;;;4.38;100.00
15487;BME280;7845;53.698;10.078;2023-03-12T02:29:37;100489.75;;;4.39;100.00
15487;BME280;7845;53.698;10.078;2023-03-12T02:32:03;100485.50;;;4.44;100.00
15487;BME280;7845;53.698;10.078;2023-03-12T02:34:29;100489.75;;;4.40;100.00
15487;BME280;7845;53.698;10.078;2023-03-12T02:36:54;100481.97;;;4.36;100.00
15487;BME280;7845;53.698;10.078;2023-03-12T02:39:19;100486.25;;;4.37;100.00
15487;BME280;7845;53.698;10.078;2023-03-12T02:41:47;100487.22;;;4.45;100.00
15487;BME280;7845;53.698;10.078;2023-03-12T02:44:23;100478.50;;;4.37;100.00
15487;BME280;7845;53.698;10.078;2023-03-12T02:46:55;100493.84;;;4.25;100.00
15487;BME280;7845;53.698;10.078;2023-03-12T02:49:27;100486.91;;;4.18;100.00
15487;BME280;7845;53.698;10.078;2023-03-12T02:51:55;100491.09;;;4.13;100.00
15487;BME280;7845;53.698;10.078;2023-03-12T02:54:21;100489.41;;;4.12;100.00
15487;BME280;7845;53.698;10.078;2023-03-12T02:56:48;100491.16;;;4.16;100.00
15487;BME280;7845;53.698;10.078;2023-03-12T02:59:14;100492.09;;;4.22;100.00
15487;BME280;7845;53.698;10.078;2023-03-12T03:01:41;100495.63;;;4.29;100.00
15487;BME280;7845;53.698;10.078;2023-03-12T03:04:09;100489.69;;;4.34;100.00
15487;BME280;7845;53.698;10.078;2023-03-12T03:06:36;100493.13;;;4.36;100.00
15487;BME280;7845;53.698;10.078;2023-03-12T03:09:05;100501.69;;;4.29;100.00
15487;BME280;7845;53.698;10.078;2023-03-12T03:11:31;100493.97;;;4.34;100.00
15487;BME280;7845;53.698;10.078;2023-03-12T03:13:56;100500.09;;;4.39;100.00
15487;BME280;7845;53.698;10.078;2023-03-12T03:16:23;100500.97;;;4.42;100.00
15487;BME280;7845;53.698;10.078;2023-03-12T03:18:50;100494.06;;;4.38;100.00
15487;BME280;7845;53.698;10.078;2023-03-12T03:21:16;100496.63;;;4.38;100.00
15487;BME280;7845;53.698;10.078;2023-03-12T03:23:46;100501.84;;;4.43;100.00
15487;BME280;7845;53.698;10.078;2023-03-12T03:26:12;100498.47;;;4.47;100.00
15487;BME280;7845;53.698;10.078;2023-03-12T03:28:38;100491.53;;;4.46;100.00
15487;BME280;7845;53.698;10.078;2023-03-12T03:31:03;100495.91;;;4.50;100.00
15487;BME280;7845;53.698;10.078;2023-03-12T03:33:31;100489.78;;;4.45;100.00
15487;BME280;7845;53.698;10.078;2023-03-12T03:35:58;100489.09;;;4.58;100.00
15487;BME280;7845;53.698;10.078;2023-03-12T03:38:25;100494.31;;;4.61;100.00
15487;BME280;7845;53.698;10.078;2023-03-12T03:40:51;100493.31;;;4.50;100.00
15487;BME280;7845;53.698;10.078;2023-03-12T03:43:17;100492.50;;;4.53;100.00
15487;BME280;7845;53.698;10.078;2023-03-12T03:45:44;100490.72;;;4.48;100.00
15487;BME280;7845;53.698;10.078;2023-03-12T03:48:10;100495.91;;;4.52;100.00
15487;BME280;7845;53.698;10.078;2023-03-12T03:50:39;100489.03;;;4.51;100.00
15487;BME280;7845;53.698;10.078;2023-03-12T03:53:06;100488.19;;;4.53;100.00
15487;BME280;7845;53.698;10.078;2023-03-12T03:55:37;100501.09;;;4.50;100.00
15487;BME280;7845;53.698;10.078;2023-03-12T03:58:02;100489.72;;;4.36;100.00
15487;BME280;7845;53.698;10.078;2023-03-12T04:00:27;100493.09;;;4.33;100.00
15487;BME280;7845;53.698;10.078;2023-03-12T04:02:53;100491.38;;;4.32;100.00
15487;BME280;7845;53.698;10.078;2023-03-12T04:05:20;100489.69;;;4.34;100.00
15487;BME280;7845;53.698;10.078;2023-03-12T04:07:46;100488.00;;;4.39;100.00
15487;BME280;7845;53.698;10.078;2023-03-12T04:10:11;100488.03;;;4.41;100.00
15487;BME280;7845;53.698;10.078;2023-03-12T04:12:37;100494.13;;;4.44;100.00
15487;BME280;7845;53.698;10.078;2023-03-12T04:15:02;100490.66;;;4.44;100.00
15487;BME280;7845;53.698;10.078;2023-03-12T04:17:28;100485.50;;;4.45;100.00
15487;BME280;7845;53.698;10.078;2023-03-12T04:19:55;100486.38;;;4.46;100.00
15487;BME280;7845;53.698;10.078;2023-03-12T04:22:20;100481.13;;;4.40;100.00
15487;BME280;7845;53.698;10.078;2023-03-12T04:24:45;100479.41;;;4.39;100.00
15487;BME280;7845;53.698;10.078;2023-03-12T04:27:11;100479.25;;;4.28;100.00
15487;BME280;7845;53.698;10.078;2023-03-12T04:29:36;100482.66;;;4.23;100.00
15487;BME280;7845;53.698;10.078;2023-03-12T04:32:04;100482.66;;;4.24;100.00
15487;BME280;7845;53.698;10.078;2023-03-12T04:34:29;100479.94;;;4.15;100.00
15487;BME280;7845;53.698;10.078;2023-03-12T04:36:55;100473.03;;;4.13;100.00
15487;BME280;7845;53.698;10.078;2023-03-12T04:39:20;100467.81;;;4.10;100.00
15487;BME280;7845;53.698;10.078;2023-03-12T04:41:46;100461.75;;;4.03;100.00
15487;BME280;7845;53.698;10.078;2023-03-12T04:44:12;100461.66;;;3.99;100.00
15487;BME280;7845;53.698;10.078;2023-03-12T04:46:38;100451.94;;;3.82;100.00
15487;BME280;7845;53.698;10.078;2023-03-12T04:49:03;100455.28;;;3.72;100.00
15487;BME280;7845;53.698;10.078;2023-03-12T04:51:29;100452.50;;;3.62;100.00
15487;BME280;7845;53.698;10.078;2023-03-12T04:53:56;100454.34;;;3.70;100.00
15487;BME280;7845;53.698;10.078;2023-03-12T04:56:22;100453.50;;;3.70;100.00
15487;BME280;7845;53.698;10.078;2023-03-12T04:58:47;100456.94;;;3.70;100.00
15487;BME280;7845;53.698;10.078;2023-03-12T05:01:25;100450.88;;;3.67;100.00
15487;BME280;7845;53.698;10.078;2023-03-12T05:03:51;100448.13;;;3.56;100.00
15487;BME280;7845;53.698;10.078;2023-03-12T05:06:16;100453.19;;;3.49;100.00
15487;BME280;7845;53.698;10.078;2023-03-12T05:08:42;100453.88;;;3.39;100.00
15487;BME280;7845;53.698;10.078;2023-03-12T05:11:08;100447.78;;;3.33;100.00
15487;BME280;7845;53.698;10.078;2023-03-12T05:13:34;100461.50;;;3.31;100.00
15487;BME280;7845;53.698;10.078;2023-03-12T05:16:01;100460.75;;;3.38;100.00
15487;BME280;7845;53.698;10.078;2023-03-12T05:18:26;100464.28;;;3.45;100.00
15487;BME280;7845;53.698;10.078;2023-03-12T05:20:58;100468.63;;;3.46;100.00
15487;BME280;7845;53.698;10.078;2023-03-12T05:23:24;100467.75;;;3.45;100.00
15487;BME280;7845;53.698;10.078;2023-03-12T05:25:49;100464.28;;;3.45;100.00
15487;BME280;7845;53.698;10.078;2023-03-12T05:28:15;100466.00;;;3.44;100.00
15487;BME280;7845;53.698;10.078;2023-03-12T05:30:42;100472.13;;;3.49;100.00
15487;BME280;7845;53.698;10.078;2023-03-12T05:33:07;100466.97;;;3.49;100.00
15487;BME280;7845;53.698;10.078;2023-03-12T05:35:32;100470.34;;;3.47;100.00
15487;BME280;7845;53.698;10.078;2023-03-12T05:37:58;100469.44;;;3.43;100.00
15487;BME280;7845;53.698;10.078;2023-03-12T05:40:23;100463.47;;;3.47;100.00
15487;BME280;7845;53.698;10.078;2023-03-12T05:42:51;100469.50;;;3.46;100.00
15487;BME280;7845;53.698;10.078;2023-03-12T05:45:17;100469.50;;;3.46;100.00
15487;BME280;7845;53.698;10.078;2023-03-12T05:47:43;100466.81;;;3.40;100.00
15487;BME280;7845;53.698;10.078;2023-03-12T05:50:10;100454.75;;;3.41;100.00
15487;BME280;7845;53.698;10.078;2023-03-12T05:52:35;100458.31;;;3.46;100.00
15487;BME280;7845;53.698;10.078;2023-03-12T05:55:01;100458.31;;;3.47;100.00
15487;BME280;7845;53.698;10.078;2023-03-12T05:57:28;100459.91;;;3.41;100.00
15487;BME280;7845;53.698;10.078;2023-03-12T05:59:54;100456.47;;;3.39;100.00
15487;BME280;7845;53.698;10.078;2023-03-12T06:02:19;100452.16;;;3.39;100.00
15487;BME280;7845;53.698;10.078;2023-03-12T06:04:44;100453.16;;;3.47;100.00
15487;BME280;7845;53.698;10.078;2023-03-12T06:07:09;100454.13;;;3.52;100.00
15487;BME280;7845;53.698;10.078;2023-03-12T06:09:36;100445.59;;;3.58;100.00
15487;BME280;7845;53.698;10.078;2023-03-12T06:12:01;100449.13;;;3.64;100.00
15487;BME280;7845;53.698;10.078;2023-03-12T06:14:27;100450.97;;;3.73;100.00
15487;BME280;7845;53.698;10.078;2023-03-12T06:16:53;100448.56;;;3.86;100.00
15487;BME280;7845;53.698;10.078;2023-03-12T06:19:18;100448.78;;;4.00;100.00
15487;BME280;7845;53.698;10.078;2023-03-12T06:21:45;100440.28;;;4.10;100.00
15487;BME280;7845;53.698;10.078;2023-03-12T06:24:10;100438.63;;;4.15;100.00
15487;BME280;7845;53.698;10.078;2023-03-12T06:26:36;100443.03;;;4.21;100.00
15487;BME280;7845;53.698;10.078;2023-03-12T06:29:02;100444.81;;;4.28;100.00
15487;BME280;7845;53.698;10.078;2023-03-12T06:31:27;100447.34;;;4.23;100.00
15487;BME280;7845;53.698;10.078;2023-03-12T06:33:53;100443.94;;;4.27;100.00
15487;BME280;7845;53.698;10.078;2023-03-12T06:36:18;100443.91;;;4.23;100.00
15487;BME280;7845;53.698;10.078;2023-03-12T06:38:44;100437.03;;;4.23;100.00
15487;BME280;7845;53.698;10.078;2023-03-12T06:41:15;100443.88;;;4.20;100.00
15487;BME280;7845;53.698;10.078;2023-03-12T06:43:42;100432.69;;;4.22;100.00
15487;BME280;7845;53.698;10.078;2023-03-12T06:46:11;100439.56;;;4.20;100.00
15487;BME280;7845;53.698;10.078;2023-03-12T06:48:37;100440.38;;;4.16;100.00
15487;BME280;7845;53.698;10.078;2023-03-12T06:51:06;100442.84;;;4.07;100.00
15487;BME280;7845;53.698;10.078;2023-03-12T06:53:33;100435.09;;;4.06;100.00
15487;BME280;7845;53.698;10.078;2023-03-12T06:56:01;100441.13;;;4.08;100.00
15487;BME280;7845;53.698;10.078;2023-03-12T06:58:28;100451.59;;;4.20;100.00
15487;BME280;7845;53.698;10.078;2023-03-12T07:00:56;100437.22;;;4.40;100.00
15487;BME280;7845;53.698;10.078;2023-03-12T07:03:22;100431.47;;;4.67;100.00
15487;BME280;7845;53.698;10.078;2023-03-12T07:05:49;100436.88;;;4.86;100.00
15487;BME280;7845;53.698;10.078;2023-03-12T07:08:15;100436.00;;;4.86;100.00
15487;BME280;7845;53.698;10.078;2023-03-12T07:10:41;100443.97;;;5.10;100.00
15487;BME280;7845;53.698;10.078;2023-03-12T07:13:11;100437.13;;;5.20;100.00
15487;BME280;7845;53.698;10.078;2023-03-12T07:15:39;100440.69;;;5.28;100.00
15487;BME280;7845;53.698;10.078;2023-03-12T07:18:07;100436.44;;;5.34;100.00
15487;BME280;7845;53.698;10.078;2023-03-12T07:20:40;100437.34;;;5.42;100.00
15487;BME280;7845;53.698;10.078;2023-03-12T07:23:06;100437.41;;;5.53;100.00
15487;BME280;7845;53.698;10.078;2023-03-12T07:25:35;100435.66;;;5.47;100.00
15487;BME280;7845;53.698;10.078;2023-03-12T07:28:01;100429.56;;;5.44;100.00
15487;BME280;7845;53.698;10.078;2023-03-12T07:30:26;100432.25;;;5.56;100.00
15487;BME280;7845;53.698;10.078;2023-03-12T07:32:52;100433.13;;;5.56;100.00
15487;BME280;7845;53.698;10.078;2023-03-12T07:35:17;100440.94;;;5.63;100.00
15487;BME280;7845;53.698;10.078;2023-03-12T07:37:43;100430.59;;;5.64;100.00
15487;BME280;7845;53.698;10.078;2023-03-12T07:40:09;100432.19;;;5.47;100.00
15487;BME280;7845;53.698;10.078;2023-03-12T07:42:35;100439.16;;;5.55;100.00
15487;BME280;7845;53.698;10.078;2023-03-12T07:45:01;100422.00;;;5.70;100.00
15487;BME280;7845;53.698;10.078;2023-03-12T07:47:28;100429.81;;;5.77;100.00
15487;BME280;7845;53.698;10.078;2023-03-12T07:49:53;100423.84;;;5.86;100.00
15487;BME280;7845;53.698;10.078;2023-03-12T07:52:19;100434.13;;;5.78;100.00
15487;BME280;7845;53.698;10.078;2023-03-12T07:54:45;100427.44;;;6.06;100.00
15487;BME280;7845;53.698;10.078;2023-03-12T07:57:11;100429.13;;;6.02;100.00
15487;BME280;7845;53.698;10.078;2023-03-12T07:59:38;100433.53;;;6.20;100.00
15487;BME280;7845;53.698;10.078;2023-03-12T08:02:04;100430.97;;;6.31;100.00
15487;BME280;7845;53.698;10.078;2023-03-12T08:04:30;100432.72;;;6.32;100.00
15487;BME280;7845;53.698;10.078;2023-03-12T08:06:55;100427.56;;;6.51;100.00
15487;BME280;7845;53.698;10.078;2023-03-12T08:09:20;100426.78;;;6.71;100.00
15487;BME280;7845;53.698;10.078;2023-03-12T08:11:46;100428.53;;;6.81;100.00
15487;BME280;7845;53.698;10.078;2023-03-12T08:14:12;100422.47;;;6.88;100.00
15487;BME280;7845;53.698;10.078;2023-03-12T08:16:37;100428.50;;;6.76;100.00
15487;BME280;7845;53.698;10.078;2023-03-12T08:19:03;100443.22;;;6.88;100.00
15487;BME280;7845;53.698;10.078;2023-03-12T08:21:28;100432.03;;;7.01;100.00
15487;BME280;7845;53.698;10.078;2023-03-12T08:23:53;100431.16;;;7.21;100.00
15487;BME280;7845;53.698;10.078;2023-03-12T08:26:18;100434.63;;;7.37;100.00
15487;BME280;7845;53.698;10.078;2023-03-12T08:28:44;100434.63;;;7.48;100.00
15487;BME280;7845;53.698;10.078;2023-03-12T08:31:09;100436.34;;;7.52;100.00
15487;BME280;7845;53.698;10.078;2023-03-12T08:33:35;100438.06;;;7.56;100.00
15487;BME280;7845;53.698;10.078;2023-03-12T08:36:01;100438.94;;;7.58;100.00
15487;BME280;7845;53.698;10.078;2023-03-12T08:38:27;100446.72;;;7.65;100.00
15487;BME280;7845;53.698;10.078;2023-03-12T08:40:57;100451.91;;;7.64;100.00
15487;BME280;7845;53.698;10.078;2023-03-12T08:43:24;100456.22;;;7.59;100.00
15487;BME280;7845;53.698;10.078;2023-03-12T08:45:57;100455.38;;;7.67;100.00
15487;BME280;7845;53.698;10.078;2023-03-12T08:48:25;100445.78;;;7.92;100.00
15487;BME280;7845;53.698;10.078;2023-03-12T08:50:50;100452.69;;;8.11;100.00
15487;BME280;7845;53.698;10.078;2023-03-12T08:53:16;100458.72;;;8.22;100.00
15487;BME280;7845;53.698;10.078;2023-03-12T08:55:42;100468.25;;;8.16;100.00
15487;BME280;7845;53.698;10.078;2023-03-12T08:58:07;100476.94;;;8.04;100.00
15487;BME280;7845;53.698;10.078;2023-03-12T09:00:32;100477.81;;;8.14;100.00
15487;BME280;7845;53.698;10.078;2023-03-12T09:02:58;100477.78;;;8.23;100.00
15487;BME280;7845;53.698;10.078;2023-03-12T09:05:24;100473.44;;;8.36;100.00
15487;BME280;7845;53.698;10.078;2023-03-12T09:07:51;100476.00;;;8.43;100.00
15487;BME280;7845;53.698;10.078;2023-03-12T09:10:16;100478.59;;;8.46;100.00
15487;BME280;7845;53.698;10.078;2023-03-12T09:12:42;100481.22;;;8.39;100.00
15487;BME280;7845;53.698;10.078;2023-03-12T09:15:09;100491.66;;;8.14;100.00
15487;BME280;7845;53.698;10.078;2023-03-12T09:17:34;100482.13;;;8.31;100.00
15487;BME280;7845;53.698;10.078;2023-03-12T09:20:00;100484.66;;;8.47;100.00
15487;BME280;7845;53.698;10.078;2023-03-12T09:22:25;100485.47;;;8.61;100.00
15487;BME280;7845;53.698;10.078;2023-03-12T09:24:53;100487.16;;;8.69;100.00
15487;BME280;7845;53.698;10.078;2023-03-12T09:27:19;100499.41;;;8.48;100.00
15487;BME280;7845;53.698;10.078;2023-03-12T09:29:44;100512.38;;;8.57;100.00
15487;BME280;7845;53.698;10.078;2023-03-12T09:32:10;100519.28;;;8.55;100.00
15487;BME280;7845;53.698;10.078;2023-03-12T09:34:35;100527.16;;;8.38;100.00
15487;BME280;7845;53.698;10.078;2023-03-12T09:37:00;100526.34;;;8.30;100.00
15487;BME280;7845;53.698;10.078;2023-03-12T09:39:26;100526.34;;;8.06;100.00
15487;BME280;7845;53.698;10.078;2023-03-12T09:41:51;100528.91;;;8.39;100.00
15487;BME280;7845;53.698;10.078;2023-03-12T09:46:55;100536.66;;;8.53;100.00
15487;BME280;7845;53.698;10.078;2023-03-12T09:49:39;100524.50;;;8.52;100.00
15487;BME280;7845;53.698;10.078;2023-03-12T09:52:20;100508.00;;;8.57;100.00
15487;BME280;7845;53.698;10.078;2023-03-12T09:54:58;100500.09;;;8.83;100.00
15487;BME280;7845;53.698;10.078;2023-03-12T09:57:26;100507.81;;;9.01;100.00
15487;BME280;7845;53.698;10.078;2023-03-12T09:59:53;100506.13;;;8.93;100.00
15487;BME280;7845;53.698;10.078;2023-03-12T10:05:36;100511.19;;;9.20;100.00
15487;BME280;7845;53.698;10.078;2023-03-12T10:08:32;100494.78;;;9.00;100.00
15487;BME280;7845;53.698;10.078;2023-03-12T10:11:21;100486.88;;;9.18;100.00
15487;BME280;7845;53.698;10.078;2023-03-12T10:14:10;100481.56;;;9.33;100.00
15487;BME280;7845;53.698;10.078;2023-03-12T10:16:53;100473.16;;;8.95;100.00
15487;BME280;7845;53.698;10.078;2023-03-12T10:19:45;100464.31;;;9.18;100.00
15487;BME280;7845;53.698;10.078;2023-03-12T10:25:25;100471.91;;;9.44;100.00
15487;BME280;7845;53.698;10.078;2023-03-12T10:27:53;100461.19;;;9.77;100.00
15487;BME280;7845;53.698;10.078;2023-03-12T10:30:24;100461.72;;;10.10;100.00
15487;BME280;7845;53.698;10.078;2023-03-12T10:32:53;100464.66;;;9.82;100.00
15487;BME280;7845;53.698;10.078;2023-03-12T10:35:22;100464.59;;;9.88;100.00
15487;BME280;7845;53.698;10.078;2023-03-12T10:38:00;100471.59;;;9.80;100.00
15487;BME280;7845;53.698;10.078;2023-03-12T10:40:32;100474.13;;;9.91;100.00
15487;BME280;7845;53.698;10.078;2023-03-12T10:43:01;100479.41;;;9.80;100.00
15487;BME280;7845;53.698;10.078;2023-03-12T10:45:42;100466.41;;;9.79;100.00
15487;BME280;7845;53.698;10.078;2023-03-12T10:48:17;100457.63;;;9.86;100.00
15487;BME280;7845;53.698;10.078;2023-03-12T10:50:43;100465.50;;;9.80;100.00
15487;BME280;7845;53.698;10.078;2023-03-12T10:53:23;100451.56;;;9.87;100.00
15487;BME280;7845;53.698;10.078;2023-03-12T10:55:58;100450.53;;;10.03;100.00
15487;BME280;7845;53.698;10.078;2023-03-12T10:58:24;100459.50;;;9.76;100.00
15487;BME280;7845;53.698;10.078;2023-03-12T11:00:56;100459.72;;;9.48;100.00
15487;BME280;7845;53.698;10.078;2023-03-12T11:03:22;100468.50;;;9.36;100.00
15487;BME280;7845;53.698;10.078;2023-03-12T11:05:49;100459.81;;;9.38;100.00
15487;BME280;7845;53.698;10.078;2023-03-12T11:08:34;100453.03;;;9.18;100.00
15487;BME280;7845;53.698;10.078;2023-03-12T11:11:01;100453.75;;;9.36;100.00
15487;BME280;7845;53.698;10.078;2023-03-12T11:13:36;100460.72;;;9.33;100.00
15487;BME280;7845;53.698;10.078;2023-03-12T11:19:00;100477.06;;;9.50;100.00
15487;BME280;7845;53.698;10.078;2023-03-12T11:21:26;100468.59;;;9.28;100.00
15487;BME280;7845;53.698;10.078;2023-03-12T11:26:28;100480.59;;;9.44;100.00
15487;BME280;7845;53.698;10.078;2023-03-12T11:29:08;100485.16;;;9.20;100.00
15487;BME280;7845;53.698;10.078;2023-03-12T11:31:38;100482.59;;;9.11;100.00
15487;BME280;7845;53.698;10.078;2023-03-12T11:34:20;100478.19;;;9.19;100.00
15487;BME280;7845;53.698;10.078;2023-03-12T11:37:07;100466.03;;;9.21;100.00
15487;BME280;7845;53.698;10.078;2023-03-12T11:39:50;100460.00;;;9.13;100.00
15487;BME280;7845;53.698;10.078;2023-03-12T11:46:02;100448.72;;;9.14;100.00
15487;BME280;7845;53.698;10.078;2023-03-12T11:48:38;100454.84;;;9.07;100.00
15487;BME280;7845;53.698;10.078;2023-03-12T11:54:29;100472.34;;;8.82;100.00
15487;BME280;7845;53.698;10.078;2023-03-12T11:57:01;100463.72;;;8.77;100.00
15487;BME280;7845;53.698;10.078;2023-03-12T11:59:42;100450.59;;;8.92;100.00
15487;BME280;7845;53.698;10.078;2023-03-12T12:05:47;100460.66;;;9.39;100.00
15487;BME280;7845;53.698;10.078;2023-03-12T12:14:05;100451.09;;;9.42;100.00
15487;BME280;7845;53.698;10.078;2023-03-12T12:19:05;100440.91;;;9.12;100.00
15487;BME280;7845;53.698;10.078;2023-03-12T12:21:44;100438.31;;;9.12;100.00
15487;BME280;7845;53.698;10.078;2023-03-12T12:27:23;100441.09;;;8.86;100.00
15487;BME280;7845;53.698;10.078;2023-03-12T12:30:05;100436.13;;;8.43;100.00
15487;BME280;7845;53.698;10.078;2023-03-12T12:35:23;100424.78;;;8.57;100.00
15487;BME280;7845;53.698;10.078;2023-03-12T12:38:05;100427.19;;;8.90;100.00
15487;BME280;7845;53.698;10.078;2023-03-12T12:40:39;100434.75;;;9.25;100.00
15487;BME280;7845;53.698;10.078;2023-03-12T12:43:26;100438.13;;;9.35;100.00
15487;BME280;7845;53.698;10.078;2023-03-12T12:45:59;100427.06;;;9.09;100.00
15487;BME280;7845;53.698;10.078;2023-03-12T12:48:45;100437.50;;;9.06;100.00
15487;BME280;7845;53.698;10.078;2023-03-12T12:51:14;100433.09;;;9.15;100.00
15487;BME280;7845;53.698;10.078;2023-03-12T12:53:50;100432.16;;;9.25;100.00
15487;BME280;7845;53.698;10.078;2023-03-12T12:56:28;100412.91;;;9.41;100.00
15487;BME280;7845;53.698;10.078;2023-03-12T12:59:16;100399.63;;;9.67;100.00
15487;BME280;7845;53.698;10.078;2023-03-12T13:01:46;100396.16;;;9.67;100.00
15487;BME280;7845;53.698;10.078;2023-03-12T13:04:17;100385.84;;;9.58;100.00
15487;BME280;7845;53.698;10.078;2023-03-12T13:09:21;100396.91;;;9.79;100.00
15487;BME280;7845;53.698;10.078;2023-03-12T13:11:47;100401.16;;;9.86;100.00
15487;BME280;7845;53.698;10.078;2023-03-12T13:14:41;100402.81;;;9.93;100.00
15487;BME280;7845;53.698;10.078;2023-03-12T13:17:26;100389.81;;;9.89;100.00
15487;BME280;7845;53.698;10.078;2023-03-12T13:19:59;100383.25;;;9.55;100.00
15487;BME280;7845;53.698;10.078;2023-03-12T13:22:44;100391.19;;;9.41;100.00
15487;BME280;7845;53.698;10.078;2023-03-12T13:27:43;100367.03;;;9.24;100.00
15487;BME280;7845;53.698;10.078;2023-03-12T13:45:41;100351.28;;;9.39;100.00
15487;BME280;7845;53.698;10.078;2023-03-12T13:48:19;100336.47;;;9.44;100.00
15487;BME280;7845;53.698;10.078;2023-03-12T13:50:54;100341.66;;;9.44;100.00
15487;BME280;7845;53.698;10.078;2023-03-12T13:53:34;100336.31;;;9.61;100.00
15487;BME280;7845;53.698;10.078;2023-03-12T13:56:09;100342.59;;;9.38;100.00
15487;BME280;7845;53.698;10.078;2023-03-12T13:59:02;100342.06;;;9.03;100.00
15487;BME280;7845;53.698;10.078;2023-03-12T14:01:39;100340.53;;;8.79;100.00
15487;BME280;7845;53.698;10.078;2023-03-12T14:04:17;100339.84;;;8.52;100.00
15487;BME280;7845;53.698;10.078;2023-03-12T14:17:46;100326.13;;;8.28;100.00
15487;BME280;7845;53.698;10.078;2023-03-12T14:20:21;100322.69;;;8.17;100.00